Fosters, Alabama
Current Conditions -  °F | °C
As of 5:53 PM on Sunday 23 Nov 2014 (Local Time) from KTCL Reporting Station
Clear Clear  
Wind Chill: 65°   Ceiling: Unl
Heat Index: 65°   Visibility: 10mi
Dew Point: 57°   Wind: 13mph
Humidity: 75%   Direction: 180°S
Pressure: 29.59"   Gusts: NA
Location:  33.09°N, 87.69°W
Report Text: KTCL 232353Z 18011KT 10SM CLR 18/14 A2959 RMK AO2 SLP016 60020 T01830139 10200 20183 53023
Loading
Personal Weather Stations






























Interactive Weather Map New forecast layout! Learn more

10-Day Weather Forecast

Advertisements
Track Severe Weather on mobile